KBPI

Miley Memorial Field Airport

Big Piney, Wyoming, USA
METAR KBPI 181553Z AUTO 34004KT 10SM FEW034 M11/M12 A3013 RMK AO2 SLP255 T11061122
Observed Flight Rules
Dec-18 @ 15:53 UTC (49 minutes ago) Visual Flight Rules
Wind Visibility Clouds
340° at 4 knots 10 miles
  • Few at 3,400' AGL
Temperatures Readings
Current -11°C / 12°F
Dewpoint -12°C / 10°F
Humidity 92%
Altimeter 30.13" Hg
Pressure 1025.5 hPa
Elevation 2117
METAR KBPI 181553Z AUTO 34004KT 10SM FEW034 M11/M12 A3013 RMK AO2 SLP255 T11061122
Observed Flight Rules
Dec-18 @ 15:53 UTC
(49 minutes ago)
VFR
Wind Visibility
340° at 4 knots 10 miles
Clouds
  • Few at 3,400' AGL
Temperature Dewpoint
-11°C / 12°F -12°C / 10°F
Humidity Altimeter Pressure
92% 30.13" Hg 1025.5 hPa